Flight Track Log - Related Links

Times and Time Zones

All times are in EDT time to prevent confusion due to time zone crossing. See the N376NG flight status page for this flight to view local times or setup timezone preferences in your user account.

Time Position Orientation Groundspeed Altitude Reporting Facility
EDT Latitude Longitude Course Direction KTS MPH feet Rate Location/Type
Sun 07:12:37 AM 38.1333 -85.7667 332° Northwest 182 209 2,600  Level Louisville TRACON
Sun 07:14:56 AM 38.1700 -85.8603 297° West 179 206 6,600 1,680 Climbing Indianapolis Center
Sun 07:15:57 AM 38.2217 -85.8736 349° North 188 216 8,200 1,574 Climbing Indianapolis Center
Sun 07:16:58 AM 38.2714 -85.8869 348° North 184 212 9,800 1,426 Climbing Indianapolis Center
Sun 07:17:00 AM 38.2966 -85.7016 330° Northwest  Level FlightAware Approximate
Sun 07:17:59 AM 38.3219 -85.9056 344° North 188 216 11,100  Level Indianapolis Center
Sun 07:18:00 AM 38.3620 -85.7468 332° Northwest  Level FlightAware Approximate
Sun 07:19:00 AM 38.3661 -85.9511 321° Northwest 203 234 12,400  Level Indianapolis Center
Sun 07:20:01 AM 38.4103 -85.9983 320° Northwest 204 235 13,600 1,180 Climbing Indianapolis Center
Sun 07:21:02 AM 38.4553 -86.0461 320° Northwest 209 241 14,800 1,180 Climbing Indianapolis Center
Sun 07:22:03 AM 38.5111 -86.1047 321° Northwest 217 250 16,000 1,082 Climbing Indianapolis Center
Sun 07:23:04 AM 38.5581 -86.1536 321° Northwest 218 251 17,000 942 Climbing Indianapolis Center
Sun 07:24:04 AM 38.6056 -86.2044 320° Northwest 222 255 17,900 893 Climbing Indianapolis Center
Sun 07:25:05 AM 38.6542 -86.2553 321° Northwest 225 259 18,800 934 Climbing Indianapolis Center
Sun 07:26:06 AM 38.7039 -86.3086 320° Northwest 231 266 19,800 934 Climbing Indianapolis Center
Sun 07:27:07 AM 38.7536 -86.3625 320° Northwest 233 268 20,700 885 Climbing Indianapolis Center
Sun 07:28:08 AM 38.8053 -86.4164 321° Northwest 239 275 21,600 885 Climbing Indianapolis Center
Sun 07:29:09 AM 38.8569 -86.4717 320° Northwest 241 277 22,500 836 Climbing Indianapolis Center
Sun 07:30:10 AM 38.9044 -86.5236 320° Northwest 243 280 23,300 885 Climbing Indianapolis Center
Sun 07:31:11 AM 38.9661 -86.5892 320° Northwest 241 277 24,300 738 Climbing Indianapolis Center
Sun 07:32:12 AM 39.0119 -86.6372 321° Northwest 239 275 24,800 590 Climbing Indianapolis Center
Sun 07:33:13 AM 39.0639 -86.6944 319° Northwest 245 282 25,500 639 Climbing Indianapolis Center
Sun 07:34:14 AM 39.1169 -86.7519 320° Northwest 248 285 26,100 590 Climbing Indianapolis Center
Sun 07:35:15 AM 39.1769 -86.8167 320° Northwest 252 290 26,700 443 Climbing Indianapolis Center
Sun 07:36:16 AM 39.2325 -86.8775 320° Northwest 259 298 27,000 146 Climbing Indianapolis Center
Sun 07:37:18 AM 39.2911 -86.9397 321° Northwest 271 312 27,000  Level Indianapolis Center
Sun 07:38:19 AM 39.3542 -87.0089 320° Northwest 291 335 27,000  Level Indianapolis Center
Sun 07:39:20 AM 39.4186 -87.0789 320° Northwest 300 345 27,000  Level Indianapolis Center
Sun 07:40:21 AM 39.4839 -87.1506 320° Northwest 306 352 27,000  Level Indianapolis Center
Sun 07:41:22 AM 39.5503 -87.2233 320° Northwest 310 357 27,000  Level Indianapolis Center
Sun 07:42:23 AM 39.6156 -87.2953 320° Northwest 309 356 27,000  Level Indianapolis Center
Sun 07:43:24 AM 39.6939 -87.3811 320° Northwest 307 353 27,000  Level Indianapolis Center
Sun 07:44:25 AM 39.7594 -87.4542 319° Northwest 310 357 27,000  Level Indianapolis Center
Sun 07:45:26 AM 39.8253 -87.5267 320° Northwest 310 357 27,000  Level Indianapolis Center
Sun 07:46:27 AM 39.8900 -87.5994 319° Northwest 308 354 27,000  Level Indianapolis Center
Sun 07:47:28 AM 39.9542 -87.6711 319° Northwest 305 351 27,000  Level Indianapolis Center
Sun 07:48:29 AM 40.0181 -87.7422 320° Northwest 303 349 27,000  Level Indianapolis Center
Sun 07:49:31 AM 40.0817 -87.8136 319° Northwest 303 349 27,000  Level Indianapolis Center
Sun 07:50:32 AM 40.1456 -87.8853 319° Northwest 302 348 27,000  Level Indianapolis Center
Sun 07:51:33 AM 40.2094 -87.9581 319° Northwest 304 350 27,000  Level Indianapolis Center
Sun 07:52:34 AM 40.2728 -88.0294 319° Northwest 302 348 27,000  Level Indianapolis Center
Sun 07:53:35 AM 40.3364 -88.1017 319° Northwest 303 349 27,000  Level Indianapolis Center
Sun 07:54:36 AM 40.4128 -88.1867 320° Northwest 301 346 27,000  Level Indianapolis Center
Sun 07:55:38 AM 40.4681 -88.2497 319° Northwest 304 350 27,000  Level Chicago Center
Sun 07:56:39 AM 40.5308 -88.3214 319° Northwest 301 346 27,000  Level Chicago Center
Sun 07:57:40 AM 40.6061 -88.4103 318° Northwest 302 348 27,000  Level Chicago Center
Sun 07:58:44 AM 40.6703 -88.4808 320° Northwest 302 348 27,000  Level Chicago Center
Sun 07:59:45 AM 40.7319 -88.5544 318° Northwest 300 345 27,000  Level Chicago Center
Sun 08:00:47 AM 40.7947 -88.6258 319° Northwest 299 344 27,000  Level Chicago Center
Sun 08:01:47 AM 40.8583 -88.6992 319° Northwest 303 349 27,000  Level Chicago Center
Sun 08:02:48 AM 40.9217 -88.7711 319° Northwest 301 346 27,000  Level Chicago Center
Sun 08:03:49 AM 40.9881 -88.8497 318° Northwest 299 344 27,000  Level Chicago Center
Sun 08:04:50 AM 41.0458 -88.9153 319° Northwest 297 342 27,000  Level Chicago Center
Sun 08:05:51 AM 41.1200 -89.0025 318° Northwest 298 343 27,000  Level Chicago Center
Sun 08:06:52 AM 41.1817 -89.0744 319° Northwest 295 339 27,000  Level Chicago Center
Sun 08:07:53 AM 41.2417 -89.1453 318° Northwest 290 334 27,000  Level Chicago Center
Sun 08:08:55 AM 41.2942 -89.2075 318° Northwest 289 333 27,000  Level Chicago Center
Sun 08:09:56 AM 41.3531 -89.2767 319° Northwest 285 328 27,000  Level Chicago Center
Sun 08:10:57 AM 41.4236 -89.3603 318° Northwest 282 325 27,000  Level Chicago Center
Sun 08:11:58 AM 41.4831 -89.4311 318° Northwest 285 328 27,000  Level Chicago Center
Sun 08:12:59 AM 41.5383 -89.4964 319° Northwest 287 330 27,000  Level Chicago Center
Sun 08:14:00 AM 41.6022 -89.5731 318° Northwest 288 331 27,000  Level Chicago Center
Sun 08:15:01 AM 41.6617 -89.6422 319° Northwest 285 328 27,000  Level Chicago Center
Sun 08:16:03 AM 41.7206 -89.7139 318° Northwest 286 329 27,000  Level Chicago Center
Sun 08:17:04 AM 41.7797 -89.7847 318° Northwest 286 329 27,000  Level Chicago Center
Sun 08:18:05 AM 41.8428 -89.8642 317° Northwest 279 321 27,000  Level Chicago Center
Sun 08:19:06 AM 41.9064 -89.9361 320° Northwest 286 329 27,000  Level Chicago Center
Sun 08:20:07 AM 41.9622 -90.0058 317° Northwest 279 321 27,000  Level Chicago Center
Sun 08:21:08 AM 42.0200 -90.0753 318° Northwest 280 322 27,000  Level Chicago Center
Sun 08:22:10 AM 42.0761 -90.1472 316° Northwest 282 325 27,000  Level Chicago Center
Sun 08:23:11 AM 42.1339 -90.2178 318° Northwest 283 326 27,000  Level Chicago Center
Sun 08:24:12 AM 42.1903 -90.2864 318° Northwest 278 320 27,000  Level Chicago Center
Sun 08:25:13 AM 42.2478 -90.3583 317° Northwest 283 326 27,000  Level Chicago Center
Sun 08:26:15 AM 42.3047 -90.4278 318° Northwest 279 321 27,000  Level Chicago Center
Sun 08:27:16 AM 42.3731 -90.5125 318° Northwest 277 319 27,000  Level Chicago Center
Sun 08:28:17 AM 42.4300 -90.5825 318° Northwest 279 321 27,000  Level Chicago Center
Sun 08:29:18 AM 42.4867 -90.6531 317° Northwest 281 323 27,000  Level Chicago Center
Sun 08:30:20 AM 42.5431 -90.7228 318° Northwest 277 319 27,000  Level Chicago Center
Sun 08:31:21 AM 42.6000 -90.7931 318° Northwest 279 321 27,000  Level Chicago Center
Sun 08:32:22 AM 42.6558 -90.8628 317° Northwest 278 320 27,000  Level Chicago Center
Sun 08:33:23 AM 42.7125 -90.9339 317° Northwest 279 321 27,000  Level Chicago Center
Sun 08:34:25 AM 42.7794 -91.0192 317° Northwest 279 321 27,000  Level Chicago Center
Sun 08:35:26 AM 42.8367 -91.0903 318° Northwest 282 325 27,000  Level Chicago Center
Sun 08:36:27 AM 42.8914 -91.1622 316° Northwest 277 319 27,000  Level Chicago Center
Sun 08:37:28 AM 42.9481 -91.2333 317° Northwest 281 323 27,000  Level Chicago Center
Sun 08:38:30 AM 43.0033 -91.3050 317° Northwest 279 321 27,000  Level Chicago Center
Sun 08:39:31 AM 43.0606 -91.3761 318° Northwest 281 323 27,000  Level Chicago Center
Sun 08:40:32 AM 43.1275 -91.4619 317° Northwest 280 322 27,000  Level Chicago Center
Sun 08:41:43 AM 43.1939 -91.5464 317° Northwest 277 319 27,000  Level Minneapolis Center
Sun 08:42:44 AM 43.2494 -91.6167 317° Northwest 276 318 27,000  Level Minneapolis Center
Sun 08:43:45 AM 43.3028 -91.6869 316° Northwest 271 312 27,000  Level Minneapolis Center
Sun 08:44:46 AM 43.3586 -91.7575 317° Northwest 274 315 27,000  Level Minneapolis Center
Sun 08:45:47 AM 43.4122 -91.8297 316° Northwest 272 313 27,000  Level Minneapolis Center
Sun 08:46:47 AM 43.4669 -91.8994 317° Northwest 271 312 27,000  Level Minneapolis Center
Sun 08:47:48 AM 43.5217 -91.9700 317° Northwest 272 313 27,000  Level Minneapolis Center
Sun 08:48:49 AM 43.5758 -92.0411 316° Northwest 271 312 27,000  Level Minneapolis Center
Sun 08:50:02 AM 43.6519 -92.1403 317° Northwest 269 310 27,000  Level Minneapolis Center
Sun 08:51:03 AM 43.7061 -92.2119 316° Northwest 270 311 27,000  Level Minneapolis Center
Sun 08:52:04 AM 43.7608 -92.2839 316° Northwest 273 314 27,000  Level Minneapolis Center
Sun 08:53:05 AM 43.8153 -92.3556 316° Northwest 272 313 27,000  Level Minneapolis Center
Sun 08:54:06 AM 43.8675 -92.4283 315° West 268 308 27,000  Level Minneapolis Center
Sun 08:55:06 AM 43.9233 -92.5003 317° Northwest 273 314 27,000  Level Minneapolis Center
Sun 08:56:07 AM 43.9778 -92.5728 316° Northwest 273 314 27,000  Level Minneapolis Center
Sun 08:57:08 AM 44.0319 -92.6453 316° Northwest 272 313 27,000  Level Minneapolis Center
Sun 08:58:09 AM 44.0839 -92.7169 315° West 266 306 27,000  Level Minneapolis Center
Sun 08:59:10 AM 44.1375 -92.7878 317° Northwest 267 307 27,000  Level Minneapolis Center
Sun 09:00:11 AM 44.1919 -92.8592 317° Northwest 269 310 27,000  Level Minneapolis Center
Sun 09:01:11 AM 44.2561 -92.9472 316° Northwest 270 311 27,000  Level Minneapolis Center
Sun 09:02:12 AM 44.3086 -93.0178 316° Northwest 266 306 27,000  Level Minneapolis Center
Sun 09:03:13 AM 44.3617 -93.0906 316° Northwest 267 307 27,000  Level Minneapolis Center
Sun 09:04:14 AM 44.4156 -93.1636 316° Northwest 268 308 27,000  Level Minneapolis Center
Sun 09:05:14 AM 44.4586 -93.2222 316° Northwest 271 312 27,000  Level Minneapolis Center
Sun 09:06:15 AM 44.5233 -93.3094 316° Northwest 268 308 27,000  Level Minneapolis Center
Sun 09:07:16 AM 44.5764 -93.3844 315° West 269 310 27,000  Level Minneapolis Center
Sun 09:08:17 AM 44.6306 -93.4592 316° Northwest 271 312 27,000  Level Minneapolis Center
Sun 09:09:18 AM 44.6853 -93.5333 316° Northwest 271 312 27,000  Level Minneapolis Center
Sun 09:10:19 AM 44.7394 -93.6081 316° Northwest 272 313 27,000  Level Minneapolis Center
Sun 09:11:20 AM 44.7928 -93.6833 315° West 271 312 27,000  Level Minneapolis Center
Sun 09:12:33 AM 44.8467 -93.7578 316° Northwest 271 312 27,000  Level Minneapolis Center
Sun 09:13:34 AM 44.9108 -93.8467 316° Northwest 270 311 27,000  Level Minneapolis Center
Sun 09:14:34 AM 44.9650 -93.9214 316° Northwest 272 313 27,000  Level Minneapolis Center
Sun 09:15:35 AM 45.0181 -93.9961 315° West 270 311 27,000  Level Minneapolis Center
Sun 09:16:36 AM 45.0711 -94.0714 315° West 271 312 27,000  Level Minneapolis Center
Sun 09:17:37 AM 45.1239 -94.1458 315° West 271 312 27,000  Level Minneapolis Center
Sun 09:18:38 AM 45.1878 -94.2361 315° West 270 311 27,000  Level Minneapolis Center
Sun 09:19:39 AM 45.2389 -94.3100 315° West 267 307 27,000  Level Minneapolis Center
Sun 09:20:40 AM 45.2814 -94.3692 316° Northwest 266 306 27,000  Level Minneapolis Center
Sun 09:21:41 AM 45.3442 -94.4600 315° West 268 308 27,000  Level Minneapolis Center
Sun 09:22:42 AM 45.3967 -94.5347 315° West 268 308 27,000  Level Minneapolis Center
Sun 09:23:43 AM 45.4500 -94.6117 315° West 272 313 27,000  Level Minneapolis Center
Sun 09:24:44 AM 45.5028 -94.6878 315° West 273 314 27,000  Level Minneapolis Center
Sun 09:25:45 AM 45.5561 -94.7639 315° West 271 312 27,000  Level Minneapolis Center
Sun 09:26:58 AM 45.6086 -94.8403 315° West 271 312 27,000  Level Minneapolis Center
Sun 09:27:59 AM 45.6711 -94.9317 314° West 268 308 27,000  Level Minneapolis Center
Sun 09:29:00 AM 45.7233 -95.0083 314° West 269 310 27,000  Level Minneapolis Center
Sun 09:30:01 AM 45.7850 -95.0972 315° West 273 314 27,000 -49 Level Minneapolis Center
Sun 09:31:02 AM 45.8369 -95.1747 314° West 273 314 26,900 -639 Descending Minneapolis Center
Sun 09:32:03 AM 45.8914 -95.2542 315° West 278 320 25,700 -1,180 Descending Minneapolis Center
Sun 09:33:04 AM 45.9472 -95.3369 314° West 288 331 24,500 -836 Descending Minneapolis Center
Sun 09:34:05 AM 46.0014 -95.4178 314° West 284 327 24,000 -443 Descending Minneapolis Center
Sun 09:35:06 AM 46.0536 -95.4944 314° West 275 316 23,600 -934 Descending Minneapolis Center
Sun 09:36:07 AM 46.1092 -95.5756 315° West 281 323 22,100 -1,475 Descending Minneapolis Center
Sun 09:37:08 AM 46.1653 -95.6594 314° West 289 333 20,600 -1,475 Descending Minneapolis Center
Sun 09:38:09 AM 46.2178 -95.7383 314° West 280 322 19,100 -1,475 Descending Minneapolis Center
Sun 09:39:10 AM 46.2781 -95.8331 313° West 270 311 17,600 -1,525 Descending Minneapolis Center
Sun 09:40:11 AM 46.3261 -95.9036 315° West 258 297 16,000 -1,721 Descending Minneapolis Center
Sun 09:41:12 AM 46.3783 -95.9822 314° West 260 299 14,100 -1,869 Descending Minneapolis Center
Sun 09:42:13 AM 46.4297 -96.0597 314° West 255 293 12,200 -1,770 Descending Minneapolis Center
Sun 09:43:14 AM 46.4756 -96.1317 313° West 253 291 10,500 -1,756 Descending Minneapolis Center
Sun 09:44:16 AM 46.5089 -96.2222 298° West 245 282 8,600 -1,854 Descending Minneapolis Center
Sun 09:45:17 AM 46.5433 -96.3114 299° West 245 282 6,700 -1,770 Descending Minneapolis Center
Sun 09:46:18 AM 46.5747 -96.3906 300° West 237 273 5,000 -1,672 Descending Minneapolis Center
Sun 09:47:19 AM 46.6072 -96.4747 299° West 228 262 3,300 -984 Descending Minneapolis Center
Sun 09:48:20 AM 46.6358 -96.5472 300° West 201 231 3,000 -148 Descending Minneapolis Center
Sun 09:49:21 AM 46.6575 -96.6039 299° West 171 197 3,000 -49 Level Minneapolis Center
Sun 09:50:22 AM 46.6800 -96.6642 299° West 163 188 2,900 -98 Descending Minneapolis Center
Sun 09:51:23 AM 46.6994 -96.7247 295° West 170 196 2,800 -49 Descending Minneapolis Center
Sun 09:52:25 AM 46.7253 -96.7861 302° West 171 197 2,800  Level Minneapolis Center
Sun 09:53:26 AM 46.7700 -96.8169 335° Northwest 170 196 2,800  Level Minneapolis Center
Sun 09:54:27 AM 46.8086 -96.8178 359° North 148 170 2,800 -246 Level Minneapolis Center
Sun 09:55:28 AM 46.8406 -96.8175 360° North 118 136 2,300 -541 Descending Minneapolis Center
Sun 09:56:29 AM 46.8711 -96.8169 North 107 123 1,700 -541 Descending Minneapolis Center
Sun 09:57:30 AM 46.8961 -96.8161 North 98 113 1,200 -492 Descending Minneapolis Center

Login

Don't have an account? Register now (free) for customized features, flight alerts, and more!